sensor_id;sensor_type;location;lat;lon;timestamp;P1;durP1;ratioP1;P2;durP2;ratioP2
20824;SDS011;10573;50.936;6.978;2023-06-10T00:02:02;6.78;;;5.63;;
20824;SDS011;10573;50.936;6.978;2023-06-10T00:04:28;8.05;;;5.25;;
20824;SDS011;10573;50.936;6.978;2023-06-10T00:06:54;10.45;;;5.97;;
20824;SDS011;10573;50.936;6.978;2023-06-10T00:09:20;9.20;;;6.22;;
20824;SDS011;10573;50.936;6.978;2023-06-10T00:11:46;9.30;;;5.32;;
20824;SDS011;10573;50.936;6.978;2023-06-10T00:14:12;7.15;;;5.82;;
20824;SDS011;10573;50.936;6.978;2023-06-10T00:16:38;7.28;;;5.75;;
20824;SDS011;10573;50.936;6.978;2023-06-10T00:19:04;7.32;;;6.05;;
20824;SDS011;10573;50.936;6.978;2023-06-10T00:21:32;7.90;;;5.45;;
20824;SDS011;10573;50.936;6.978;2023-06-10T00:24:06;6.85;;;5.70;;
20824;SDS011;10573;50.936;6.978;2023-06-10T00:26:34;6.05;;;5.15;;
20824;SDS011;10573;50.936;6.978;2023-06-10T00:29:00;6.32;;;5.65;;
20824;SDS011;10573;50.936;6.978;2023-06-10T00:31:26;8.55;;;5.57;;
20824;SDS011;10573;50.936;6.978;2023-06-10T00:33:51;5.97;;;5.38;;
20824;SDS011;10573;50.936;6.978;2023-06-10T00:36:17;7.85;;;5.32;;
20824;SDS011;10573;50.936;6.978;2023-06-10T00:38:42;10.10;;;5.55;;
20824;SDS011;10573;50.936;6.978;2023-06-10T00:41:08;8.15;;;5.85;;
20824;SDS011;10573;50.936;6.978;2023-06-10T00:43:33;7.03;;;6.13;;
20824;SDS011;10573;50.936;6.978;2023-06-10T00:45:59;6.73;;;5.43;;
20824;SDS011;10573;50.936;6.978;2023-06-10T00:48:25;8.93;;;5.50;;
20824;SDS011;10573;50.936;6.978;2023-06-10T00:50:51;7.65;;;5.35;;
20824;SDS011;10573;50.936;6.978;2023-06-10T00:53:17;9.30;;;5.63;;
20824;SDS011;10573;50.936;6.978;2023-06-10T00:55:43;8.03;;;6.10;;
20824;SDS011;10573;50.936;6.978;2023-06-10T00:58:09;8.07;;;6.00;;
20824;SDS011;10573;50.936;6.978;2023-06-10T01:00:35;7.57;;;5.77;;
20824;SDS011;10573;50.936;6.978;2023-06-10T01:03:00;6.83;;;6.13;;
20824;SDS011;10573;50.936;6.978;2023-06-10T01:05:26;8.13;;;5.87;;
20824;SDS011;10573;50.936;6.978;2023-06-10T01:08:03;9.40;;;5.67;;
20824;SDS011;10573;50.936;6.978;2023-06-10T01:10:54;7.53;;;6.03;;
20824;SDS011;10573;50.936;6.978;2023-06-10T01:13:24;8.13;;;6.90;;
20824;SDS011;10573;50.936;6.978;2023-06-10T01:15:53;10.30;;;6.40;;
20824;SDS011;10573;50.936;6.978;2023-06-10T01:18:22;7.03;;;5.73;;
20824;SDS011;10573;50.936;6.978;2023-06-10T01:20:47;7.67;;;6.07;;
20824;SDS011;10573;50.936;6.978;2023-06-10T01:23:14;10.60;;;5.97;;
20824;SDS011;10573;50.936;6.978;2023-06-10T01:25:41;11.30;;;5.87;;
20824;SDS011;10573;50.936;6.978;2023-06-10T01:28:36;7.90;;;6.10;;
20824;SDS011;10573;50.936;6.978;2023-06-10T01:31:09;6.97;;;5.63;;
20824;SDS011;10573;50.936;6.978;2023-06-10T01:33:45;12.03;;;6.63;;
20824;SDS011;10573;50.936;6.978;2023-06-10T01:36:12;9.03;;;5.77;;
20824;SDS011;10573;50.936;6.978;2023-06-10T01:38:42;8.30;;;6.60;;
20824;SDS011;10573;50.936;6.978;2023-06-10T01:41:09;7.50;;;5.93;;
20824;SDS011;10573;50.936;6.978;2023-06-10T01:43:37;7.07;;;6.23;;
20824;SDS011;10573;50.936;6.978;2023-06-10T01:46:03;7.70;;;6.50;;
20824;SDS011;10573;50.936;6.978;2023-06-10T01:48:29;7.33;;;6.57;;
20824;SDS011;10573;50.936;6.978;2023-06-10T01:50:54;9.30;;;6.43;;
20824;SDS011;10573;50.936;6.978;2023-06-10T01:53:21;9.13;;;6.87;;
20824;SDS011;10573;50.936;6.978;2023-06-10T01:55:47;6.83;;;5.80;;
20824;SDS011;10573;50.936;6.978;2023-06-10T01:58:12;9.87;;;6.30;;
20824;SDS011;10573;50.936;6.978;2023-06-10T02:00:38;8.67;;;6.53;;
20824;SDS011;10573;50.936;6.978;2023-06-10T02:03:03;11.50;;;6.50;;
20824;SDS011;10573;50.936;6.978;2023-06-10T02:05:29;11.60;;;7.23;;
20824;SDS011;10573;50.936;6.978;2023-06-10T02:07:54;7.73;;;6.93;;
20824;SDS011;10573;50.936;6.978;2023-06-10T02:10:19;7.97;;;7.03;;
20824;SDS011;10573;50.936;6.978;2023-06-10T02:12:45;8.20;;;6.77;;
20824;SDS011;10573;50.936;6.978;2023-06-10T02:15:10;7.33;;;6.53;;
20824;SDS011;10573;50.936;6.978;2023-06-10T02:17:36;10.73;;;6.40;;
20824;SDS011;10573;50.936;6.978;2023-06-10T02:20:02;11.37;;;6.87;;
20824;SDS011;10573;50.936;6.978;2023-06-10T02:22:29;8.00;;;6.30;;
20824;SDS011;10573;50.936;6.978;2023-06-10T02:24:54;10.87;;;6.67;;
20824;SDS011;10573;50.936;6.978;2023-06-10T02:27:20;11.03;;;7.10;;
20824;SDS011;10573;50.936;6.978;2023-06-10T02:29:46;8.30;;;6.90;;
20824;SDS011;10573;50.936;6.978;2023-06-10T02:32:11;7.30;;;6.60;;
20824;SDS011;10573;50.936;6.978;2023-06-10T02:34:37;10.13;;;6.43;;
20824;SDS011;10573;50.936;6.978;2023-06-10T02:37:02;7.60;;;6.63;;
20824;SDS011;10573;50.936;6.978;2023-06-10T02:39:28;9.00;;;7.20;;
20824;SDS011;10573;50.936;6.978;2023-06-10T02:41:54;8.60;;;7.03;;
20824;SDS011;10573;50.936;6.978;2023-06-10T02:44:19;8.50;;;6.13;;
20824;SDS011;10573;50.936;6.978;2023-06-10T02:46:45;8.80;;;6.87;;
20824;SDS011;10573;50.936;6.978;2023-06-10T02:49:11;7.57;;;6.43;;
20824;SDS011;10573;50.936;6.978;2023-06-10T02:51:37;9.43;;;7.07;;
20824;SDS011;10573;50.936;6.978;2023-06-10T02:54:03;12.50;;;6.60;;
20824;SDS011;10573;50.936;6.978;2023-06-10T02:56:28;15.63;;;7.50;;
20824;SDS011;10573;50.936;6.978;2023-06-10T02:58:53;9.43;;;7.23;;
20824;SDS011;10573;50.936;6.978;2023-06-10T03:01:19;9.80;;;7.35;;
20824;SDS011;10573;50.936;6.978;2023-06-10T03:03:45;9.13;;;7.30;;
20824;SDS011;10573;50.936;6.978;2023-06-10T03:06:11;10.17;;;6.77;;
20824;SDS011;10573;50.936;6.978;2023-06-10T03:08:37;8.57;;;6.20;;
20824;SDS011;10573;50.936;6.978;2023-06-10T03:11:03;15.10;;;7.13;;
20824;SDS011;10573;50.936;6.978;2023-06-10T03:13:29;7.83;;;6.80;;
20824;SDS011;10573;50.936;6.978;2023-06-10T03:15:55;8.63;;;6.87;;
20824;SDS011;10573;50.936;6.978;2023-06-10T03:18:21;8.00;;;6.73;;
20824;SDS011;10573;50.936;6.978;2023-06-10T03:20:48;8.17;;;7.07;;
20824;SDS011;10573;50.936;6.978;2023-06-10T03:23:13;8.37;;;6.90;;
20824;SDS011;10573;50.936;6.978;2023-06-10T03:25:39;8.73;;;6.53;;
20824;SDS011;10573;50.936;6.978;2023-06-10T03:28:04;8.63;;;7.07;;
20824;SDS011;10573;50.936;6.978;2023-06-10T03:30:29;8.43;;;6.60;;
20824;SDS011;10573;50.936;6.978;2023-06-10T03:32:55;9.27;;;6.53;;
20824;SDS011;10573;50.936;6.978;2023-06-10T03:35:20;10.70;;;7.57;;
20824;SDS011;10573;50.936;6.978;2023-06-10T03:37:46;11.57;;;7.17;;
20824;SDS011;10573;50.936;6.978;2023-06-10T03:40:12;10.00;;;6.67;;
20824;SDS011;10573;50.936;6.978;2023-06-10T03:42:37;9.07;;;7.10;;
20824;SDS011;10573;50.936;6.978;2023-06-10T03:45:03;11.77;;;6.87;;
20824;SDS011;10573;50.936;6.978;2023-06-10T03:47:33;10.17;;;7.10;;
20824;SDS011;10573;50.936;6.978;2023-06-10T03:50:00;8.53;;;6.57;;
20824;SDS011;10573;50.936;6.978;2023-06-10T03:52:25;9.00;;;7.77;;
20824;SDS011;10573;50.936;6.978;2023-06-10T03:54:51;11.60;;;7.47;;
20824;SDS011;10573;50.936;6.978;2023-06-10T03:57:16;7.53;;;6.77;;
20824;SDS011;10573;50.936;6.978;2023-06-10T03:59:41;12.30;;;7.83;;
20824;SDS011;10573;50.936;6.978;2023-06-10T04:02:07;8.40;;;7.07;;
20824;SDS011;10573;50.936;6.978;2023-06-10T04:04:34;10.40;;;7.10;;
20824;SDS011;10573;50.936;6.978;2023-06-10T04:06:59;12.93;;;7.17;;
20824;SDS011;10573;50.936;6.978;2023-06-10T04:09:25;10.77;;;7.53;;
20824;SDS011;10573;50.936;6.978;2023-06-10T04:11:50;9.70;;;7.83;;
20824;SDS011;10573;50.936;6.978;2023-06-10T04:14:16;9.30;;;8.10;;
20824;SDS011;10573;50.936;6.978;2023-06-10T04:16:41;9.10;;;7.67;;
20824;SDS011;10573;50.936;6.978;2023-06-10T04:19:08;10.73;;;7.53;;
20824;SDS011;10573;50.936;6.978;2023-06-10T04:21:33;10.40;;;7.70;;
20824;SDS011;10573;50.936;6.978;2023-06-10T04:23:58;9.33;;;7.60;;
20824;SDS011;10573;50.936;6.978;2023-06-10T04:26:24;9.47;;;7.87;;
20824;SDS011;10573;50.936;6.978;2023-06-10T04:28:50;9.77;;;7.23;;
20824;SDS011;10573;50.936;6.978;2023-06-10T04:31:16;10.40;;;7.97;;
20824;SDS011;10573;50.936;6.978;2023-06-10T04:33:41;10.67;;;7.77;;
20824;SDS011;10573;50.936;6.978;2023-06-10T04:36:07;9.90;;;7.67;;
20824;SDS011;10573;50.936;6.978;2023-06-10T04:38:33;13.20;;;7.93;;
20824;SDS011;10573;50.936;6.978;2023-06-10T04:40:58;9.57;;;7.83;;
20824;SDS011;10573;50.936;6.978;2023-06-10T04:43:24;11.00;;;7.37;;
20824;SDS011;10573;50.936;6.978;2023-06-10T04:45:49;10.63;;;7.80;;
20824;SDS011;10573;50.936;6.978;2023-06-10T04:48:14;11.33;;;7.93;;
20824;SDS011;10573;50.936;6.978;2023-06-10T04:50:40;11.70;;;7.30;;
20824;SDS011;10573;50.936;6.978;2023-06-10T04:53:05;9.00;;;7.00;;
20824;SDS011;10573;50.936;6.978;2023-06-10T04:55:31;10.70;;;7.20;;
20824;SDS011;10573;50.936;6.978;2023-06-10T04:57:58;11.70;;;6.67;;
20824;SDS011;10573;50.936;6.978;2023-06-10T05:00:23;8.33;;;6.87;;
20824;SDS011;10573;50.936;6.978;2023-06-10T05:02:49;9.90;;;7.07;;
20824;SDS011;10573;50.936;6.978;2023-06-10T05:05:17;7.80;;;6.20;;
20824;SDS011;10573;50.936;6.978;2023-06-10T05:07:43;9.67;;;6.70;;
20824;SDS011;10573;50.936;6.978;2023-06-10T05:10:09;8.27;;;6.83;;
20824;SDS011;10573;50.936;6.978;2023-06-10T05:12:37;8.13;;;6.20;;
20824;SDS011;10573;50.936;6.978;2023-06-10T05:15:04;10.97;;;6.23;;
20824;SDS011;10573;50.936;6.978;2023-06-10T05:17:30;7.07;;;6.37;;
20824;SDS011;10573;50.936;6.978;2023-06-10T05:19:56;8.17;;;6.73;;
20824;SDS011;10573;50.936;6.978;2023-06-10T05:22:21;10.57;;;6.80;;
20824;SDS011;10573;50.936;6.978;2023-06-10T05:24:49;9.07;;;6.37;;
20824;SDS011;10573;50.936;6.978;2023-06-10T05:27:14;8.52;;;6.30;;
20824;SDS011;10573;50.936;6.978;2023-06-10T05:29:40;7.07;;;5.87;;
20824;SDS011;10573;50.936;6.978;2023-06-10T05:32:05;9.70;;;6.10;;
20824;SDS011;10573;50.936;6.978;2023-06-10T05:34:31;7.68;;;5.75;;
20824;SDS011;10573;50.936;6.978;2023-06-10T05:36:57;9.18;;;6.45;;
20824;SDS011;10573;50.936;6.978;2023-06-10T05:39:23;9.10;;;6.07;;
20824;SDS011;10573;50.936;6.978;2023-06-10T05:41:48;7.40;;;6.10;;
20824;SDS011;10573;50.936;6.978;2023-06-10T05:44:14;7.05;;;6.32;;
20824;SDS011;10573;50.936;6.978;2023-06-10T05:46:39;8.03;;;5.40;;
20824;SDS011;10573;50.936;6.978;2023-06-10T05:49:04;7.37;;;6.40;;
20824;SDS011;10573;50.936;6.978;2023-06-10T05:51:30;8.90;;;6.10;;
20824;SDS011;10573;50.936;6.978;2023-06-10T05:53:55;13.10;;;6.60;;
20824;SDS011;10573;50.936;6.978;2023-06-10T05:56:21;7.03;;;5.60;;
20824;SDS011;10573;50.936;6.978;2023-06-10T05:58:47;6.90;;;5.47;;
20824;SDS011;10573;50.936;6.978;2023-06-10T06:01:13;6.57;;;5.88;;
20824;SDS011;10573;50.936;6.978;2023-06-10T06:03:39;5.80;;;5.20;;
20824;SDS011;10573;50.936;6.978;2023-06-10T06:06:04;8.38;;;5.53;;
20824;SDS011;10573;50.936;6.978;2023-06-10T06:08:30;11.35;;;5.75;;
20824;SDS011;10573;50.936;6.978;2023-06-10T06:10:56;9.63;;;5.97;;
20824;SDS011;10573;50.936;6.978;2023-06-10T06:13:22;7.60;;;5.65;;
20824;SDS011;10573;50.936;6.978;2023-06-10T06:15:47;7.80;;;5.00;;
20824;SDS011;10573;50.936;6.978;2023-06-10T06:18:13;6.55;;;4.97;;
20824;SDS011;10573;50.936;6.978;2023-06-10T06:20:38;7.32;;;5.30;;
20824;SDS011;10573;50.936;6.978;2023-06-10T06:23:03;5.90;;;4.85;;
20824;SDS011;10573;50.936;6.978;2023-06-10T06:25:29;9.18;;;5.65;;
20824;SDS011;10573;50.936;6.978;2023-06-10T06:27:54;6.05;;;5.20;;
20824;SDS011;10573;50.936;6.978;2023-06-10T06:30:20;6.55;;;5.35;;
20824;SDS011;10573;50.936;6.978;2023-06-10T06:32:45;7.80;;;5.30;;
20824;SDS011;10573;50.936;6.978;2023-06-10T06:35:11;6.13;;;4.72;;
20824;SDS011;10573;50.936;6.978;2023-06-10T06:37:36;16.00;;;5.60;;
20824;SDS011;10573;50.936;6.978;2023-06-10T06:40:01;8.05;;;4.90;;
20824;SDS011;10573;50.936;6.978;2023-06-10T06:42:28;12.68;;;4.90;;
20824;SDS011;10573;50.936;6.978;2023-06-10T06:44:54;7.65;;;4.70;;
20824;SDS011;10573;50.936;6.978;2023-06-10T06:47:19;6.25;;;5.07;;
20824;SDS011;10573;50.936;6.978;2023-06-10T06:49:45;8.07;;;5.03;;
20824;SDS011;10573;50.936;6.978;2023-06-10T06:52:11;5.65;;;4.53;;
20824;SDS011;10573;50.936;6.978;2023-06-10T06:54:37;5.70;;;4.82;;
20824;SDS011;10573;50.936;6.978;2023-06-10T06:57:03;6.83;;;5.13;;
20824;SDS011;10573;50.936;6.978;2023-06-10T06:59:28;5.65;;;4.20;;
20824;SDS011;10573;50.936;6.978;2023-06-10T07:01:53;6.72;;;4.78;;
20824;SDS011;10573;50.936;6.978;2023-06-10T07:04:20;7.82;;;4.72;;
20824;SDS011;10573;50.936;6.978;2023-06-10T07:06:47;7.13;;;5.22;;
20824;SDS011;10573;50.936;6.978;2023-06-10T07:09:13;8.43;;;5.20;;
20824;SDS011;10573;50.936;6.978;2023-06-10T07:11:38;5.15;;;4.65;;
20824;SDS011;10573;50.936;6.978;2023-06-10T07:14:04;6.18;;;4.82;;
20824;SDS011;10573;50.936;6.978;2023-06-10T07:16:29;8.35;;;5.15;;
20824;SDS011;10573;50.936;6.978;2023-06-10T07:18:55;5.65;;;4.40;;
20824;SDS011;10573;50.936;6.978;2023-06-10T07:21:20;6.90;;;4.28;;
20824;SDS011;10573;50.936;6.978;2023-06-10T07:23:47;8.57;;;4.93;;
20824;SDS011;10573;50.936;6.978;2023-06-10T07:26:13;5.72;;;4.10;;
20824;SDS011;10573;50.936;6.978;2023-06-10T07:28:39;6.35;;;4.68;;
20824;SDS011;10573;50.936;6.978;2023-06-10T07:31:05;6.85;;;4.38;;
20824;SDS011;10573;50.936;6.978;2023-06-10T07:33:30;5.05;;;4.55;;
20824;SDS011;10573;50.936;6.978;2023-06-10T07:35:56;7.20;;;4.70;;
20824;SDS011;10573;50.936;6.978;2023-06-10T07:38:21;7.10;;;4.57;;
20824;SDS011;10573;50.936;6.978;2023-06-10T07:40:47;12.02;;;4.13;;
20824;SDS011;10573;50.936;6.978;2023-06-10T07:43:12;5.72;;;4.93;;
20824;SDS011;10573;50.936;6.978;2023-06-10T07:45:41;7.40;;;4.72;;
20824;SDS011;10573;50.936;6.978;2023-06-10T07:48:06;8.48;;;4.68;;
20824;SDS011;10573;50.936;6.978;2023-06-10T07:50:32;6.40;;;5.50;;
20824;SDS011;10573;50.936;6.978;2023-06-10T07:52:58;8.43;;;4.57;;
20824;SDS011;10573;50.936;6.978;2023-06-10T07:55:23;11.50;;;5.65;;
20824;SDS011;10573;50.936;6.978;2023-06-10T07:57:51;5.07;;;4.55;;
20824;SDS011;10573;50.936;6.978;2023-06-10T08:00:17;7.72;;;4.78;;
20824;SDS011;10573;50.936;6.978;2023-06-10T08:02:42;6.75;;;4.13;;
20824;SDS011;10573;50.936;6.978;2023-06-10T08:05:08;5.50;;;5.00;;
20824;SDS011;10573;50.936;6.978;2023-06-10T08:07:34;5.65;;;4.22;;
20824;SDS011;10573;50.936;6.978;2023-06-10T08:10:00;5.47;;;4.90;;
20824;SDS011;10573;50.936;6.978;2023-06-10T08:12:25;7.00;;;4.65;;
20824;SDS011;10573;50.936;6.978;2023-06-10T08:14:51;5.85;;;5.07;;
20824;SDS011;10573;50.936;6.978;2023-06-10T08:17:16;5.82;;;5.05;;
20824;SDS011;10573;50.936;6.978;2023-06-10T08:19:41;5.90;;;5.03;;
20824;SDS011;10573;50.936;6.978;2023-06-10T08:22:07;5.47;;;4.70;;
20824;SDS011;10573;50.936;6.978;2023-06-10T08:24:32;9.13;;;5.60;;
20824;SDS011;10573;50.936;6.978;2023-06-10T08:26:58;10.88;;;5.40;;
20824;SDS011;10573;50.936;6.978;2023-06-10T08:29:23;8.15;;;4.80;;
20824;SDS011;10573;50.936;6.978;2023-06-10T08:31:49;7.53;;;4.70;;
20824;SDS011;10573;50.936;6.978;2023-06-10T08:34:15;12.85;;;5.03;;
20824;SDS011;10573;50.936;6.978;2023-06-10T08:36:40;6.88;;;4.93;;
20824;SDS011;10573;50.936;6.978;2023-06-10T08:39:05;10.60;;;5.10;;
20824;SDS011;10573;50.936;6.978;2023-06-10T08:41:34;6.25;;;4.68;;
20824;SDS011;10573;50.936;6.978;2023-06-10T08:46:47;12.75;;;4.90;;
20824;SDS011;10573;50.936;6.978;2023-06-10T08:49:19;6.75;;;4.45;;
20824;SDS011;10573;50.936;6.978;2023-06-10T08:51:51;7.13;;;4.60;;
20824;SDS011;10573;50.936;6.978;2023-06-10T08:54:22;7.82;;;4.80;;
20824;SDS011;10573;50.936;6.978;2023-06-10T08:56:52;7.15;;;4.50;;
20824;SDS011;10573;50.936;6.978;2023-06-10T08:59:20;5.88;;;4.95;;
20824;SDS011;10573;50.936;6.978;2023-06-10T09:01:46;6.20;;;4.35;;
20824;SDS011;10573;50.936;6.978;2023-06-10T09:04:12;8.63;;;5.45;;
20824;SDS011;10573;50.936;6.978;2023-06-10T09:06:38;9.80;;;4.43;;
20824;SDS011;10573;50.936;6.978;2023-06-10T09:09:05;5.25;;;4.18;;
20824;SDS011;10573;50.936;6.978;2023-06-10T09:11:32;7.15;;;4.55;;
20824;SDS011;10573;50.936;6.978;2023-06-10T09:13:58;6.43;;;4.70;;
20824;SDS011;10573;50.936;6.978;2023-06-10T09:16:26;5.60;;;4.82;;
20824;SDS011;10573;50.936;6.978;2023-06-10T09:18:52;7.82;;;4.20;;
20824;SDS011;10573;50.936;6.978;2023-06-10T09:21:23;5.18;;;4.65;;
20824;SDS011;10573;50.936;6.978;2023-06-10T09:23:48;5.32;;;4.80;;
20824;SDS011;10573;50.936;6.978;2023-06-10T09:26:15;6.38;;;4.20;;
20824;SDS011;10573;50.936;6.978;2023-06-10T09:29:23;6.72;;;5.18;;
20824;SDS011;10573;50.936;6.978;2023-06-10T09:31:30;8.23;;;4.55;;
20824;SDS011;10573;50.936;6.978;2023-06-10T09:34:04;6.13;;;4.20;;
20824;SDS011;10573;50.936;6.978;2023-06-10T09:36:32;5.20;;;4.70;;
20824;SDS011;10573;50.936;6.978;2023-06-10T09:38:58;4.90;;;4.40;;
20824;SDS011;10573;50.936;6.978;2023-06-10T09:41:31;5.93;;;4.60;;
20824;SDS011;10573;50.936;6.978;2023-06-10T09:43:58;6.93;;;4.40;;
20824;SDS011;10573;50.936;6.978;2023-06-10T09:46:23;6.03;;;4.13;;
20824;SDS011;10573;50.936;6.978;2023-06-10T09:48:48;7.65;;;4.63;;
20824;SDS011;10573;50.936;6.978;2023-06-10T09:51:14;6.70;;;4.90;;
20824;SDS011;10573;50.936;6.978;2023-06-10T09:53:42;5.20;;;4.60;;
20824;SDS011;10573;50.936;6.978;2023-06-10T09:56:07;4.47;;;4.07;;
20824;SDS011;10573;50.936;6.978;2023-06-10T09:58:34;5.97;;;4.65;;
20824;SDS011;10573;50.936;6.978;2023-06-10T10:01:07;5.43;;;4.30;;
20824;SDS011;10573;50.936;6.978;2023-06-10T10:06:14;6.57;;;5.25;;
20824;SDS011;10573;50.936;6.978;2023-06-10T10:08:41;5.18;;;4.07;;
20824;SDS011;10573;50.936;6.978;2023-06-10T10:11:06;4.32;;;4.03;;
20824;SDS011;10573;50.936;6.978;2023-06-10T10:13:33;4.78;;;4.15;;
20824;SDS011;10573;50.936;6.978;2023-06-10T10:16:00;8.20;;;4.28;;
20824;SDS011;10573;50.936;6.978;2023-06-10T10:18:29;5.65;;;4.32;;
20824;SDS011;10573;50.936;6.978;2023-06-10T10:20:57;7.95;;;5.15;;
20824;SDS011;10573;50.936;6.978;2023-06-10T10:23:26;7.07;;;4.35;;
20824;SDS011;10573;50.936;6.978;2023-06-10T10:26:00;6.63;;;4.30;;
20824;SDS011;10573;50.936;6.978;2023-06-10T10:28:31;8.00;;;4.90;;
20824;SDS011;10573;50.936;6.978;2023-06-10T10:31:04;10.90;;;5.10;;
20824;SDS011;10573;50.936;6.978;2023-06-10T10:33:50;7.22;;;4.30;;
20824;SDS011;10573;50.936;6.978;2023-06-10T10:36:21;5.65;;;4.22;;
20824;SDS011;10573;50.936;6.978;2023-06-10T10:38:47;9.48;;;4.18;;
20824;SDS011;10573;50.936;6.978;2023-06-10T10:41:14;6.35;;;3.88;;
20824;SDS011;10573;50.936;6.978;2023-06-10T10:43:40;6.80;;;3.67;;
20824;SDS011;10573;50.936;6.978;2023-06-10T10:46:12;7.07;;;3.90;;
20824;SDS011;10573;50.936;6.978;2023-06-10T10:48:39;6.65;;;4.28;;
20824;SDS011;10573;50.936;6.978;2023-06-10T10:51:09;14.88;;;4.68;;
20824;SDS011;10573;50.936;6.978;2023-06-10T10:53:38;5.28;;;4.22;;
20824;SDS011;10573;50.936;6.978;2023-06-10T10:58:30;5.15;;;4.05;;
20824;SDS011;10573;50.936;6.978;2023-06-10T11:00:57;6.60;;;3.80;;
20824;SDS011;10573;50.936;6.978;2023-06-10T11:03:22;4.28;;;3.88;;
20824;SDS011;10573;50.936;6.978;2023-06-10T11:05:56;6.32;;;4.38;;
20824;SDS011;10573;50.936;6.978;2023-06-10T11:10:57;4.30;;;3.90;;
20824;SDS011;10573;50.936;6.978;2023-06-10T11:13:23;4.65;;;4.00;;
20824;SDS011;10573;50.936;6.978;2023-06-10T11:15:50;4.18;;;3.80;;
20824;SDS011;10573;50.936;6.978;2023-06-10T11:18:26;6.90;;;3.70;;
20824;SDS011;10573;50.936;6.978;2023-06-10T11:20:53;6.38;;;3.53;;
20824;SDS011;10573;50.936;6.978;2023-06-10T11:28:42;5.38;;;3.60;;
20824;SDS011;10573;50.936;6.978;2023-06-10T11:33:58;6.30;;;4.20;;
20824;SDS011;10573;50.936;6.978;2023-06-10T11:36:25;4.13;;;3.58;;
20824;SDS011;10573;50.936;6.978;2023-06-10T11:38:55;6.30;;;3.63;;
20824;SDS011;10573;50.936;6.978;2023-06-10T11:41:23;8.35;;;3.83;;
20824;SDS011;10573;50.936;6.978;2023-06-10T11:43:53;7.20;;;4.38;;
20824;SDS011;10573;50.936;6.978;2023-06-10T11:46:21;8.93;;;3.78;;
20824;SDS011;10573;50.936;6.978;2023-06-10T11:48:51;7.18;;;3.60;;
20824;SDS011;10573;50.936;6.978;2023-06-10T11:51:17;3.88;;;3.53;;
20824;SDS011;10573;50.936;6.978;2023-06-10T11:53:47;4.00;;;3.60;;
20824;SDS011;10573;50.936;6.978;2023-06-10T11:56:13;5.43;;;3.72;;
20824;SDS011;10573;50.936;6.978;2023-06-10T11:58:44;6.22;;;3.50;;
20824;SDS011;10573;50.936;6.978;2023-06-10T12:01:10;6.20;;;3.60;;
20824;SDS011;10573;50.936;6.978;2023-06-10T12:03:36;4.05;;;3.65;;
20824;SDS011;10573;50.936;6.978;2023-06-10T12:06:06;6.30;;;3.95;;
20824;SDS011;10573;50.936;6.978;2023-06-10T12:08:32;5.28;;;3.55;;
20824;SDS011;10573;50.936;6.978;2023-06-10T12:11:06;7.40;;;3.78;;
20824;SDS011;10573;50.936;6.978;2023-06-10T12:13:31;5.95;;;3.78;;
20824;SDS011;10573;50.936;6.978;2023-06-10T12:16:06;3.80;;;3.45;;
20824;SDS011;10573;50.936;6.978;2023-06-10T12:18:33;4.10;;;3.70;;
20824;SDS011;10573;50.936;6.978;2023-06-10T12:20:58;5.70;;;3.70;;
20824;SDS011;10573;50.936;6.978;2023-06-10T12:23:24;5.18;;;3.80;;
20824;SDS011;10573;50.936;6.978;2023-06-10T12:25:53;5.07;;;3.40;;
20824;SDS011;10573;50.936;6.978;2023-06-10T12:28:23;4.45;;;3.60;;
20824;SDS011;10573;50.936;6.978;2023-06-10T12:30:49;8.10;;;3.47;;
20824;SDS011;10573;50.936;6.978;2023-06-10T12:33:19;4.43;;;3.65;;
20824;SDS011;10573;50.936;6.978;2023-06-10T12:35:49;6.32;;;4.15;;
20824;SDS011;10573;50.936;6.978;2023-06-10T12:38:24;8.57;;;4.00;;
20824;SDS011;10573;50.936;6.978;2023-06-10T12:40:54;4.03;;;3.60;;
20824;SDS011;10573;50.936;6.978;2023-06-10T12:43:26;4.13;;;3.72;;
20824;SDS011;10573;50.936;6.978;2023-06-10T12:45:51;8.65;;;3.95;;
20824;SDS011;10573;50.936;6.978;2023-06-10T12:48:18;5.25;;;3.70;;
20824;SDS011;10573;50.936;6.978;2023-06-10T12:50:49;4.38;;;3.75;;
20824;SDS011;10573;50.936;6.978;2023-06-10T12:53:19;7.05;;;3.63;;
20824;SDS011;10573;50.936;6.978;2023-06-10T12:55:46;5.07;;;3.63;;
20824;SDS011;10573;50.936;6.978;2023-06-10T12:58:12;5.70;;;3.30;;
20824;SDS011;10573;50.936;6.978;2023-06-10T13:00:38;4.78;;;3.13;;
20824;SDS011;10573;50.936;6.978;2023-06-10T13:03:04;4.97;;;3.58;;
20824;SDS011;10573;50.936;6.978;2023-06-10T13:05:33;4.32;;;3.60;;
20824;SDS011;10573;50.936;6.978;2023-06-10T13:07:59;4.03;;;3.30;;
20824;SDS011;10573;50.936;6.978;2023-06-10T13:10:24;5.45;;;3.30;;
20824;SDS011;10573;50.936;6.978;2023-06-10T13:12:51;3.63;;;3.15;;
20824;SDS011;10573;50.936;6.978;2023-06-10T13:15:16;5.07;;;2.85;;
20824;SDS011;10573;50.936;6.978;2023-06-10T13:17:45;3.38;;;3.05;;
20824;SDS011;10573;50.936;6.978;2023-06-10T13:20:15;3.97;;;3.60;;
20824;SDS011;10573;50.936;6.978;2023-06-10T13:22:44;4.32;;;3.28;;
20824;SDS011;10573;50.936;6.978;2023-06-10T13:25:10;5.45;;;3.28;;
20824;SDS011;10573;50.936;6.978;2023-06-10T13:27:35;4.38;;;3.58;;
20824;SDS011;10573;50.936;6.978;2023-06-10T13:30:06;4.22;;;3.25;;
20824;SDS011;10573;50.936;6.978;2023-06-10T13:32:32;4.93;;;3.72;;
20824;SDS011;10573;50.936;6.978;2023-06-10T13:34:57;3.20;;;2.88;;
20824;SDS011;10573;50.936;6.978;2023-06-10T13:37:23;7.13;;;3.47;;
20824;SDS011;10573;50.936;6.978;2023-06-10T13:39:48;7.10;;;3.60;;
20824;SDS011;10573;50.936;6.978;2023-06-10T13:42:18;4.60;;;3.00;;
20824;SDS011;10573;50.936;6.978;2023-06-10T13:44:45;5.72;;;3.22;;
20824;SDS011;10573;50.936;6.978;2023-06-10T13:47:12;4.90;;;3.28;;
20824;SDS011;10573;50.936;6.978;2023-06-10T13:49:38;4.05;;;3.75;;
20824;SDS011;10573;50.936;6.978;2023-06-10T13:52:03;4.00;;;3.25;;
20824;SDS011;10573;50.936;6.978;2023-06-10T13:54:29;5.28;;;3.08;;
20824;SDS011;10573;50.936;6.978;2023-06-10T13:56:54;3.95;;;3.13;;
20824;SDS011;10573;50.936;6.978;2023-06-10T13:59:20;6.93;;;3.20;;
20824;SDS011;10573;50.936;6.978;2023-06-10T14:01:46;5.43;;;3.05;;
20824;SDS011;10573;50.936;6.978;2023-06-10T14:04:12;7.32;;;2.85;;
20824;SDS011;10573;50.936;6.978;2023-06-10T14:06:37;5.25;;;2.83;;
20824;SDS011;10573;50.936;6.978;2023-06-10T14:09:03;8.15;;;3.00;;
20824;SDS011;10573;50.936;6.978;2023-06-10T14:11:29;3.28;;;2.90;;
20824;SDS011;10573;50.936;6.978;2023-06-10T14:13:54;3.63;;;2.45;;
20824;SDS011;10573;50.936;6.978;2023-06-10T14:16:23;4.55;;;3.08;;
20824;SDS011;10573;50.936;6.978;2023-06-10T14:18:49;5.47;;;2.92;;
20824;SDS011;10573;50.936;6.978;2023-06-10T14:21:18;3.47;;;3.13;;
20824;SDS011;10573;50.936;6.978;2023-06-10T14:23:44;4.25;;;3.10;;
20824;SDS011;10573;50.936;6.978;2023-06-10T14:26:10;3.45;;;3.15;;
20824;SDS011;10573;50.936;6.978;2023-06-10T14:28:36;5.00;;;2.88;;
20824;SDS011;10573;50.936;6.978;2023-06-10T14:31:01;5.00;;;3.05;;
20824;SDS011;10573;50.936;6.978;2023-06-10T14:33:26;7.32;;;3.30;;
20824;SDS011;10573;50.936;6.978;2023-06-10T14:35:52;3.28;;;3.00;;
20824;SDS011;10573;50.936;6.978;2023-06-10T14:38:17;4.28;;;3.05;;
20824;SDS011;10573;50.936;6.978;2023-06-10T14:40:43;5.53;;;2.80;;
20824;SDS011;10573;50.936;6.978;2023-06-10T14:43:09;8.02;;;3.00;;
20824;SDS011;10573;50.936;6.978;2023-06-10T14:45:38;3.65;;;2.78;;
20824;SDS011;10573;50.936;6.978;2023-06-10T14:48:05;6.55;;;3.58;;
20824;SDS011;10573;50.936;6.978;2023-06-10T14:50:31;3.50;;;2.90;;
20824;SDS011;10573;50.936;6.978;2023-06-10T14:52:57;3.00;;;2.70;;
20824;SDS011;10573;50.936;6.978;2023-06-10T14:55:23;3.97;;;3.38;;
20824;SDS011;10573;50.936;6.978;2023-06-10T14:57:49;3.60;;;3.25;;
20824;SDS011;10573;50.936;6.978;2023-06-10T15:00:14;3.80;;;3.33;;
20824;SDS011;10573;50.936;6.978;2023-06-10T15:02:45;4.88;;;3.05;;